createdAt,value
2019-06-26T00:01:54.057Z,25.72
2019-06-26T00:04:22.553Z,25.58
2019-06-26T00:06:51.081Z,25.56
2019-06-26T00:09:19.644Z,25.57
2019-06-26T00:11:48.125Z,25.54
2019-06-26T00:14:16.603Z,25.58
2019-06-26T00:16:45.126Z,25.48
2019-06-26T00:19:13.596Z,25.46
2019-06-26T00:21:42.104Z,25.45
2019-06-26T00:24:10.590Z,25.49
2019-06-26T00:26:39.094Z,25.34
2019-06-26T00:29:07.584Z,25.38
2019-06-26T00:31:36.091Z,25.41
2019-06-26T00:34:04.641Z,25.43
2019-06-26T00:36:33.146Z,25.38
2019-06-26T00:39:01.632Z,25.29
2019-06-26T00:41:30.140Z,25.28
2019-06-26T00:43:58.630Z,25.40
2019-06-26T00:46:27.132Z,25.38
2019-06-26T00:48:55.616Z,25.44
2019-06-26T00:51:24.266Z,25.33
2019-06-26T00:53:52.750Z,25.29
2019-06-26T00:56:21.241Z,25.31
2019-06-26T00:58:49.723Z,25.26
2019-06-26T01:01:18.235Z,25.41
2019-06-26T01:03:48.477Z,25.45
2019-06-26T01:06:34.797Z,25.41
2019-06-26T01:09:03.368Z,25.30
2019-06-26T01:11:31.882Z,25.47
2019-06-26T01:14:00.336Z,25.33
2019-06-26T01:16:28.848Z,25.24
2019-06-26T01:18:57.326Z,25.15
2019-06-26T01:21:26.000Z,25.08
2019-06-26T01:23:54.482Z,25.06
2019-06-26T01:26:22.986Z,25.09
2019-06-26T01:28:51.460Z,25.12
2019-06-26T01:31:20.146Z,25.16
2019-06-26T01:33:48.700Z,25.19
2019-06-26T01:36:17.210Z,25.16
2019-06-26T01:38:45.692Z,24.99
2019-06-26T01:41:14.250Z,24.94
2019-06-26T01:43:42.687Z,24.94
2019-06-26T01:46:11.205Z,24.94
2019-06-26T01:48:39.680Z,24.89
2019-06-26T01:51:08.194Z,24.79
2019-06-26T01:53:36.680Z,24.73
2019-06-26T01:56:05.183Z,24.71
2019-06-26T01:58:33.672Z,24.70
2019-06-26T02:01:02.183Z,24.53
2019-06-26T02:03:30.667Z,24.63
2019-06-26T02:05:59.178Z,24.60
2019-06-26T02:08:27.657Z,24.57
2019-06-26T02:10:56.168Z,24.54
2019-06-26T02:13:24.654Z,24.65
2019-06-26T02:15:53.154Z,24.60
2019-06-26T02:18:34.797Z,24.54
2019-06-26T02:21:03.312Z,24.47
2019-06-26T02:23:31.789Z,24.28
2019-06-26T02:26:00.261Z,24.29
2019-06-26T02:28:28.837Z,24.26
2019-06-26T02:30:57.316Z,24.21
2019-06-26T02:33:25.816Z,24.20
2019-06-26T02:35:54.299Z,24.17
2019-06-26T02:38:22.805Z,24.10
2019-06-26T02:40:51.284Z,24.05
2019-06-26T02:43:19.792Z,23.98
2019-06-26T02:45:48.303Z,24.01
2019-06-26T02:48:16.779Z,23.92
2019-06-26T02:50:45.263Z,24.06
2019-06-26T02:53:13.772Z,23.95
2019-06-26T02:55:42.778Z,24.02
2019-06-26T02:58:11.283Z,24.01
2019-06-26T03:00:39.761Z,23.86
2019-06-26T03:03:08.275Z,23.84
2019-06-26T03:05:36.775Z,23.71
2019-06-26T03:08:05.329Z,23.68
2019-06-26T03:10:33.839Z,23.56
2019-06-26T03:13:02.350Z,23.47
2019-06-26T03:15:30.826Z,23.75
2019-06-26T03:17:59.348Z,23.83
2019-06-26T03:20:30.868Z,23.91
2019-06-26T03:22:59.415Z,23.80
2019-06-26T03:25:27.864Z,23.92
2019-06-26T03:27:56.362Z,24.13
2019-06-26T03:30:24.921Z,24.17
2019-06-26T03:32:53.435Z,24.23
2019-06-26T03:35:21.913Z,24.37
2019-06-26T03:37:50.422Z,24.30
2019-06-26T03:40:19.061Z,24.38
2019-06-26T03:42:47.578Z,24.52
2019-06-26T03:45:25.619Z,24.39
2019-06-26T03:47:46.402Z,24.33
2019-06-26T03:50:15.020Z,24.35
2019-06-26T03:52:43.527Z,24.51
2019-06-26T03:55:12.186Z,24.56
2019-06-26T03:57:40.754Z,24.72
2019-06-26T04:00:10.106Z,24.62
2019-06-26T04:02:38.675Z,24.59
2019-06-26T04:05:08.010Z,24.47
2019-06-26T04:07:36.503Z,24.49
2019-06-26T04:10:08.327Z,24.57
2019-06-26T04:12:36.804Z,24.73
2019-06-26T04:15:07.349Z,24.80
2019-06-26T04:17:35.956Z,24.82
2019-06-26T04:20:08.900Z,24.93
2019-06-26T04:22:37.391Z,24.90
2019-06-26T04:25:09.200Z,24.96
2019-06-26T04:27:37.690Z,24.87
2019-06-26T04:30:10.597Z,24.91
2019-06-26T04:32:39.268Z,24.87
2019-06-26T04:35:08.016Z,25.00
2019-06-26T04:37:36.497Z,24.94
2019-06-26T04:40:07.239Z,25.05
2019-06-26T04:42:35.722Z,25.01
2019-06-26T04:45:06.656Z,25.03
2019-06-26T04:47:35.402Z,25.14
2019-06-26T04:50:09.260Z,25.13
2019-06-26T04:52:37.794Z,25.20
2019-06-26T04:55:10.333Z,25.17
2019-06-26T04:57:39.289Z,25.14
2019-06-26T05:00:09.323Z,25.10
2019-06-26T05:02:37.937Z,25.17
2019-06-26T05:05:07.775Z,25.17
2019-06-26T05:07:36.249Z,25.27
2019-06-26T05:10:07.092Z,25.34
2019-06-26T05:12:35.572Z,25.38
2019-06-26T05:15:07.135Z,25.50
2019-06-26T05:17:35.615Z,25.60
2019-06-26T05:20:09.663Z,25.69
2019-06-26T05:22:38.140Z,25.66
2019-06-26T05:25:08.280Z,25.81
2019-06-26T05:27:36.772Z,25.90
2019-06-26T05:30:08.870Z,25.97
2019-06-26T05:32:37.355Z,25.97
2019-06-26T05:35:07.808Z,25.92
2019-06-26T05:37:36.274Z,26.05
2019-06-26T05:40:12.833Z,26.21
2019-06-26T05:42:41.274Z,26.24
2019-06-26T05:45:10.846Z,26.20
2019-06-26T05:47:39.371Z,26.24
2019-06-26T05:50:08.613Z,26.32
2019-06-26T05:52:37.164Z,26.27
2019-06-26T05:55:07.303Z,26.19
2019-06-26T05:57:35.775Z,26.53
2019-06-26T06:00:07.330Z,26.48
2019-06-26T06:02:35.810Z,26.43
2019-06-26T06:05:06.160Z,26.83
2019-06-26T06:07:34.669Z,26.84
2019-06-26T06:10:03.730Z,26.83
2019-06-26T06:12:32.199Z,26.87
2019-06-26T06:15:00.677Z,26.96
2019-06-26T06:17:29.182Z,26.94
2019-06-26T06:19:57.688Z,26.89
2019-06-26T06:22:27.546Z,27.06
2019-06-26T06:24:56.273Z,27.39
2019-06-26T06:27:24.739Z,27.40
2019-06-26T06:29:53.291Z,27.40
2019-06-26T06:32:21.794Z,27.56
2019-06-26T06:34:50.309Z,27.61
2019-06-26T06:37:18.794Z,27.80
2019-06-26T06:39:47.371Z,27.86
2019-06-26T06:42:15.852Z,27.97
2019-06-26T06:44:44.352Z,27.92
2019-06-26T06:47:12.845Z,28.13
2019-06-26T06:49:41.346Z,28.19
2019-06-26T06:52:09.832Z,28.41
2019-06-26T06:54:38.337Z,28.44
2019-06-26T06:57:06.820Z,28.43
2019-06-26T06:59:35.316Z,28.47
2019-06-26T07:02:03.817Z,28.30
2019-06-26T07:04:32.305Z,28.19
2019-06-26T07:07:00.785Z,28.42
2019-06-26T07:09:29.285Z,28.45
2019-06-26T07:11:57.764Z,28.47
2019-06-26T07:14:26.271Z,28.51
2019-06-26T07:16:54.749Z,28.45
2019-06-26T07:19:23.296Z,28.52
2019-06-26T07:21:51.801Z,28.69
2019-06-26T07:24:20.333Z,28.75
2019-06-26T07:26:48.785Z,28.94
2019-06-26T07:29:17.263Z,29.03
2019-06-26T07:31:45.771Z,29.37
2019-06-26T07:34:14.258Z,29.40
2019-06-26T07:36:42.764Z,29.31
2019-06-26T07:39:11.243Z,29.36
2019-06-26T07:41:39.756Z,29.75
2019-06-26T07:44:08.231Z,29.65
2019-06-26T07:46:36.758Z,29.80
2019-06-26T07:49:05.283Z,29.70
2019-06-26T07:51:33.868Z,29.78
2019-06-26T07:54:02.353Z,30.20
2019-06-26T07:56:30.869Z,30.15
2019-06-26T07:58:59.364Z,30.12
2019-06-26T08:01:27.927Z,30.20
2019-06-26T08:03:56.405Z,30.21
2019-06-26T08:06:24.913Z,30.33
2019-06-26T08:08:53.394Z,30.32
2019-06-26T08:11:21.962Z,30.55
2019-06-26T08:13:50.456Z,30.76
2019-06-26T08:16:18.957Z,30.73
2019-06-26T08:18:47.438Z,30.78
2019-06-26T08:21:15.950Z,30.93
2019-06-26T08:23:44.416Z,30.87
2019-06-26T08:26:12.993Z,30.95
2019-06-26T08:28:41.482Z,31.03
2019-06-26T08:31:10.069Z,30.98
2019-06-26T08:33:38.605Z,31.35
2019-06-26T08:36:07.104Z,31.36
2019-06-26T08:38:35.588Z,31.15
2019-06-26T08:41:04.089Z,31.12
2019-06-26T08:43:32.567Z,31.42
2019-06-26T08:46:01.109Z,31.47
2019-06-26T08:48:39.654Z,31.49
2019-06-26T08:50:59.835Z,31.66
2019-06-26T08:53:28.308Z,31.70
2019-06-26T08:55:56.815Z,31.87
2019-06-26T08:58:25.279Z,31.68
2019-06-26T09:00:53.801Z,31.63
2019-06-26T09:03:22.306Z,31.74
2019-06-26T09:05:50.812Z,31.84
2019-06-26T09:08:19.420Z,31.99
2019-06-26T09:10:48.051Z,31.94
2019-06-26T09:13:16.553Z,32.24
2019-06-26T09:15:49.390Z,32.43
2019-06-26T09:18:15.266Z,32.56
2019-06-26T09:20:43.845Z,32.60
2019-06-26T09:23:12.324Z,32.77
2019-06-26T09:25:40.796Z,32.85
2019-06-26T09:28:09.301Z,32.94
2019-06-26T09:30:37.776Z,32.64
2019-06-26T09:33:06.278Z,32.52
2019-06-26T09:35:34.758Z,32.54
2019-06-26T09:38:03.271Z,32.79
2019-06-26T09:40:32.267Z,32.93
2019-06-26T09:43:00.928Z,33.12
2019-06-26T09:45:29.479Z,33.47
2019-06-26T09:47:57.991Z,33.50
2019-06-26T09:50:26.463Z,33.72
2019-06-26T09:52:54.959Z,34.10
2019-06-26T09:55:23.495Z,33.94
2019-06-26T09:57:51.986Z,34.05
2019-06-26T10:00:22.713Z,33.87
2019-06-26T10:02:51.193Z,33.97
2019-06-26T10:05:20.045Z,34.38
2019-06-26T10:07:48.719Z,34.67
2019-06-26T10:10:17.427Z,35.36
2019-06-26T10:12:45.928Z,35.78
2019-06-26T10:15:15.741Z,36.54
2019-06-26T10:17:44.468Z,36.65
2019-06-26T10:20:13.088Z,36.82
2019-06-26T10:22:41.578Z,37.69
2019-06-26T10:25:11.551Z,38.58
2019-06-26T10:27:40.444Z,39.57
2019-06-26T10:30:09.451Z,39.35
2019-06-26T10:32:37.950Z,39.20
2019-06-26T10:35:06.665Z,38.87
2019-06-26T10:37:35.148Z,38.72
2019-06-26T10:40:04.058Z,38.22
2019-06-26T10:42:32.543Z,39.44
2019-06-26T10:45:01.028Z,40.08
2019-06-26T10:47:29.629Z,40.43
2019-06-26T10:49:58.072Z,40.22
2019-06-26T10:52:26.568Z,39.57
2019-06-26T10:54:55.033Z,40.03
2019-06-26T10:57:23.673Z,40.68
2019-06-26T10:59:55.552Z,40.91
2019-06-26T11:02:22.434Z,41.27
2019-06-26T11:04:50.958Z,41.34
2019-06-26T11:07:19.505Z,40.58
2019-06-26T11:09:48.030Z,41.15
2019-06-26T11:12:16.515Z,40.32
2019-06-26T11:14:45.067Z,40.15
2019-06-26T11:17:13.535Z,41.01
2019-06-26T11:19:44.241Z,40.88
2019-06-26T11:22:12.239Z,41.88
2019-06-26T11:24:40.750Z,41.82
2019-06-26T11:27:09.287Z,42.02
2019-06-26T11:29:37.785Z,41.61
2019-06-26T11:32:09.390Z,41.51
2019-06-26T11:34:36.474Z,41.50
2019-06-26T11:37:04.948Z,41.41
2019-06-26T11:39:33.435Z,41.88
2019-06-26T11:42:01.902Z,42.87
2019-06-26T11:44:30.403Z,42.95
2019-06-26T11:46:58.941Z,42.66
2019-06-26T11:49:27.443Z,43.27
2019-06-26T11:51:55.911Z,43.54
2019-06-26T11:54:24.422Z,42.91
2019-06-26T11:56:52.872Z,42.12
2019-06-26T11:59:21.369Z,42.69
2019-06-26T12:01:49.873Z,44.31
2019-06-26T12:04:18.376Z,43.28
2019-06-26T12:06:46.850Z,42.48
2019-06-26T12:09:15.346Z,42.80
2019-06-26T12:11:43.837Z,43.15
2019-06-26T12:14:12.683Z,42.67
2019-06-26T12:16:41.158Z,43.01
2019-06-26T12:19:09.653Z,42.80
2019-06-26T12:21:38.136Z,43.20
2019-06-26T12:24:06.611Z,42.74
2019-06-26T12:26:35.163Z,42.33
2019-06-26T12:29:03.727Z,42.12
2019-06-26T12:31:32.221Z,43.93
2019-06-26T12:34:00.791Z,44.65
2019-06-26T12:36:29.261Z,43.87
2019-06-26T12:38:57.763Z,43.93
2019-06-26T12:41:26.222Z,44.16
2019-06-26T12:43:54.733Z,44.99
2019-06-26T12:46:23.200Z,44.99
2019-06-26T12:48:51.702Z,43.95
2019-06-26T12:51:20.174Z,45.33
2019-06-26T12:53:48.739Z,45.40
2019-06-26T12:56:17.205Z,45.40
2019-06-26T12:58:45.694Z,45.63
2019-06-26T13:01:14.175Z,43.66
2019-06-26T13:03:42.782Z,43.66
2019-06-26T13:06:11.219Z,43.76
2019-06-26T13:08:39.697Z,45.62
2019-06-26T13:11:08.208Z,45.02
2019-06-26T13:13:36.731Z,44.96
2019-06-26T13:16:05.301Z,44.91
2019-06-26T13:18:33.761Z,44.60
2019-06-26T13:21:04.998Z,44.32
2019-06-26T13:23:32.447Z,45.10
2019-06-26T13:26:00.929Z,46.63
2019-06-26T13:28:29.400Z,46.49
2019-06-26T13:30:57.903Z,46.80
2019-06-26T13:33:26.398Z,47.09
2019-06-26T13:35:55.673Z,46.93
2019-06-26T13:38:27.100Z,45.44
2019-06-26T13:40:54.431Z,45.37
2019-06-26T13:43:22.889Z,44.99
2019-06-26T13:45:51.387Z,44.88
2019-06-26T13:48:19.862Z,45.97
2019-06-26T13:50:48.381Z,46.39
2019-06-26T13:53:16.836Z,45.60
2019-06-26T13:55:45.330Z,44.88
2019-06-26T13:58:13.806Z,44.65
2019-06-26T14:00:42.315Z,45.58
2019-06-26T14:03:10.784Z,46.67
2019-06-26T14:05:39.270Z,46.09
2019-06-26T14:08:07.749Z,45.75
2019-06-26T14:10:36.270Z,44.95
2019-06-26T14:13:04.742Z,45.19
2019-06-26T14:15:33.308Z,44.96
2019-06-26T14:18:01.781Z,44.93
2019-06-26T14:20:30.270Z,45.35
2019-06-26T14:22:58.758Z,45.22
2019-06-26T14:25:27.240Z,45.23
2019-06-26T14:27:55.708Z,45.68
2019-06-26T14:30:27.699Z,45.71
2019-06-26T14:32:54.540Z,45.47
2019-06-26T14:35:23.052Z,45.87
2019-06-26T14:37:51.517Z,45.02
2019-06-26T14:40:20.403Z,45.04
2019-06-26T14:42:49.112Z,46.13
2019-06-26T14:45:17.654Z,46.96
2019-06-26T14:47:46.125Z,46.53
2019-06-26T14:50:14.769Z,46.54
2019-06-26T14:52:45.869Z,45.28
2019-06-26T14:55:13.996Z,46.31
2019-06-26T14:57:42.457Z,46.85
2019-06-26T15:00:11.441Z,45.34
2019-06-26T15:02:39.955Z,45.15
2019-06-26T15:05:09.886Z,43.52
2019-06-26T15:07:38.384Z,43.52
2019-06-26T15:10:10.008Z,42.57
2019-06-26T15:12:38.507Z,42.81
2019-06-26T15:15:07.802Z,43.40
2019-06-26T15:17:36.503Z,43.63
2019-06-26T15:20:06.418Z,44.45
2019-06-26T15:22:34.917Z,44.29
2019-06-26T15:25:04.738Z,43.98
2019-06-26T15:27:33.238Z,43.84
2019-06-26T15:30:01.715Z,43.26
2019-06-26T15:32:30.207Z,42.32
2019-06-26T15:34:58.693Z,42.55
2019-06-26T15:37:27.194Z,41.93
2019-06-26T15:39:55.662Z,42.89
2019-06-26T15:42:24.159Z,42.92
2019-06-26T15:44:52.687Z,42.81
2019-06-26T15:47:21.223Z,42.73
2019-06-26T15:49:49.693Z,43.12
2019-06-26T15:52:18.195Z,43.75
2019-06-26T15:54:46.674Z,42.86
2019-06-26T15:57:15.174Z,42.51
2019-06-26T15:59:43.650Z,42.65
2019-06-26T16:02:12.145Z,42.50
2019-06-26T16:04:40.693Z,42.30
2019-06-26T16:07:09.209Z,42.44
2019-06-26T16:09:37.701Z,43.15
2019-06-26T16:12:06.271Z,43.30
2019-06-26T16:14:34.744Z,43.06
2019-06-26T16:17:10.793Z,43.32
2019-06-26T16:19:39.280Z,43.47
2019-06-26T16:22:07.798Z,42.84
2019-06-26T16:24:36.254Z,41.68
2019-06-26T16:27:04.749Z,41.17
2019-06-26T16:29:33.228Z,41.56
2019-06-26T16:32:01.744Z,40.95
2019-06-26T16:34:30.216Z,40.88
2019-06-26T16:36:58.728Z,41.07
2019-06-26T16:39:27.209Z,41.51
2019-06-26T16:41:55.712Z,41.62
2019-06-26T16:44:24.189Z,41.01
2019-06-26T16:46:52.692Z,39.56
2019-06-26T16:49:21.174Z,39.82
2019-06-26T16:51:49.680Z,39.97
2019-06-26T16:54:18.159Z,39.52
2019-06-26T16:56:46.654Z,39.16
2019-06-26T16:59:15.133Z,39.40
2019-06-26T17:01:43.685Z,39.49
2019-06-26T17:04:12.196Z,38.62
2019-06-26T17:06:40.670Z,37.75
2019-06-26T17:09:09.712Z,36.91
2019-06-26T17:11:38.282Z,37.00
2019-06-26T17:14:06.867Z,37.38
2019-06-26T17:16:35.346Z,37.35
2019-06-26T17:19:03.858Z,36.99
2019-06-26T17:21:32.539Z,36.63
2019-06-26T17:24:01.092Z,36.84
2019-06-26T17:26:29.566Z,36.96
2019-06-26T17:28:58.074Z,36.76
2019-06-26T17:31:28.199Z,37.07
2019-06-26T17:33:56.696Z,37.32
2019-06-26T17:36:28.669Z,37.57
2019-06-26T17:38:55.393Z,37.61
2019-06-26T17:41:23.865Z,37.69
2019-06-26T17:43:52.369Z,37.50
2019-06-26T17:46:20.836Z,37.20
2019-06-26T17:48:49.338Z,37.04
2019-06-26T17:51:17.813Z,36.86
2019-06-26T17:53:46.312Z,36.67
2019-06-26T17:56:14.791Z,36.56
2019-06-26T17:58:43.296Z,36.44
2019-06-26T18:01:11.844Z,36.12
2019-06-26T18:03:40.341Z,35.81
2019-06-26T18:06:08.822Z,35.37
2019-06-26T18:08:37.991Z,35.16
2019-06-26T18:11:06.461Z,34.96
2019-06-26T18:13:34.969Z,34.73
2019-06-26T18:16:03.453Z,34.66
2019-06-26T18:18:31.960Z,34.52
2019-06-26T18:21:00.435Z,34.09
2019-06-26T18:23:37.555Z,33.73
2019-06-26T18:26:12.529Z,33.46
2019-06-26T18:28:29.366Z,33.07
2019-06-26T18:30:57.847Z,32.42
2019-06-26T18:33:26.345Z,31.92
2019-06-26T18:35:54.822Z,31.76
2019-06-26T18:38:23.315Z,31.47
2019-06-26T18:40:51.877Z,31.28
2019-06-26T18:43:20.375Z,31.10
2019-06-26T18:45:48.851Z,31.13
2019-06-26T18:48:17.359Z,31.08
2019-06-26T18:50:45.841Z,30.81
2019-06-26T18:53:14.322Z,30.62
2019-06-26T18:55:42.829Z,30.71
2019-06-26T18:58:11.339Z,30.69
2019-06-26T19:00:39.857Z,30.49
2019-06-26T19:03:08.311Z,30.39
2019-06-26T19:05:36.808Z,30.22
2019-06-26T19:08:05.441Z,30.13
2019-06-26T19:10:33.944Z,29.91
2019-06-26T19:13:02.416Z,29.86
2019-06-26T19:15:30.924Z,29.88
2019-06-26T19:17:59.411Z,29.85
2019-06-26T19:20:27.924Z,29.81
2019-06-26T19:22:56.393Z,29.77
2019-06-26T19:25:24.896Z,29.56
2019-06-26T19:27:53.379Z,29.13
2019-06-26T19:30:22.021Z,28.70
2019-06-26T19:32:50.522Z,28.68
2019-06-26T19:35:20.017Z,28.57
2019-06-26T19:37:48.924Z,28.43
2019-06-26T19:40:17.585Z,28.32
2019-06-26T19:42:46.051Z,28.23
2019-06-26T19:45:14.999Z,28.14
2019-06-26T19:47:43.749Z,28.04
2019-06-26T19:50:12.798Z,28.02
2019-06-26T19:52:41.273Z,27.98
2019-06-26T19:55:10.419Z,27.99
2019-06-26T19:57:38.905Z,27.86
2019-06-26T20:00:09.539Z,27.85
2019-06-26T20:02:38.090Z,27.77
2019-06-26T20:05:07.534Z,27.88
2019-06-26T20:07:36.011Z,27.83
2019-06-26T20:10:06.362Z,27.79
2019-06-26T20:12:35.339Z,27.84
2019-06-26T20:15:05.704Z,27.87
2019-06-26T20:17:34.186Z,27.80
2019-06-26T20:20:03.287Z,27.83
2019-06-26T20:22:31.817Z,27.80
2019-06-26T20:25:00.394Z,27.89
2019-06-26T20:27:28.868Z,27.93
2019-06-26T20:29:57.375Z,27.96
2019-06-26T20:32:25.852Z,27.92
2019-06-26T20:34:54.353Z,27.83
2019-06-26T20:37:22.835Z,27.79
2019-06-26T20:39:51.341Z,27.58
2019-06-26T20:42:19.812Z,27.47
2019-06-26T20:44:48.304Z,27.55
2019-06-26T20:47:16.802Z,27.65
2019-06-26T20:49:53.136Z,27.78
2019-06-26T20:52:15.514Z,27.54
2019-06-26T20:54:56.755Z,27.53
2019-06-26T20:57:14.221Z,27.59
2019-06-26T20:59:42.707Z,27.36
2019-06-26T21:02:11.213Z,27.23
2019-06-26T21:04:39.851Z,27.18
2019-06-26T21:07:08.347Z,27.31
2019-06-26T21:09:36.838Z,27.37
2019-06-26T21:12:05.410Z,27.46
2019-06-26T21:14:33.887Z,27.27
2019-06-26T21:17:02.426Z,27.50
2019-06-26T21:19:30.946Z,27.61
2019-06-26T21:21:59.447Z,27.55
2019-06-26T21:24:27.921Z,27.67
2019-06-26T21:26:56.416Z,27.63
2019-06-26T21:29:24.895Z,27.60
2019-06-26T21:31:53.393Z,27.65
2019-06-26T21:34:21.868Z,27.55
2019-06-26T21:36:50.366Z,27.44
2019-06-26T21:39:18.844Z,27.41
2019-06-26T21:41:47.356Z,27.38
2019-06-26T21:44:15.823Z,27.44
2019-06-26T21:46:44.327Z,27.68
2019-06-26T21:49:12.851Z,27.70
2019-06-26T21:51:41.300Z,27.75
2019-06-26T21:54:09.782Z,27.74
2019-06-26T21:56:38.308Z,27.78
2019-06-26T21:59:06.831Z,27.74
2019-06-26T22:01:35.415Z,27.86
2019-06-26T22:04:04.677Z,27.85
2019-06-26T22:06:33.158Z,27.83
2019-06-26T22:09:01.643Z,27.67
2019-06-26T22:11:30.202Z,27.63
2019-06-26T22:13:58.679Z,27.53
2019-06-26T22:16:27.175Z,27.39
2019-06-26T22:18:55.662Z,27.30
2019-06-26T22:21:24.165Z,27.11
2019-06-26T22:23:52.647Z,26.90
2019-06-26T22:26:21.150Z,26.83
2019-06-26T22:28:49.692Z,26.72
2019-06-26T22:31:18.203Z,26.41
2019-06-26T22:33:46.688Z,26.17
2019-06-26T22:36:15.166Z,25.94
2019-06-26T22:38:43.677Z,25.78
2019-06-26T22:41:12.165Z,25.64
2019-06-26T22:43:40.672Z,25.38
2019-06-26T22:46:09.151Z,25.26
2019-06-26T22:48:37.655Z,25.19
2019-06-26T22:51:06.142Z,25.00
2019-06-26T22:53:34.645Z,25.01
2019-06-26T22:56:07.983Z,24.94
2019-06-26T22:58:33.795Z,24.89
2019-06-26T23:01:02.405Z,24.77
2019-06-26T23:03:30.973Z,24.65
2019-06-26T23:05:59.458Z,24.67
2019-06-26T23:08:27.962Z,24.62
2019-06-26T23:10:56.449Z,24.44
2019-06-26T23:13:24.955Z,24.49
2019-06-26T23:15:53.430Z,24.51
2019-06-26T23:18:21.938Z,24.26
2019-06-26T23:20:50.413Z,24.75
2019-06-26T23:23:18.918Z,25.01
2019-06-26T23:25:47.399Z,25.15
2019-06-26T23:28:15.905Z,25.30
2019-06-26T23:30:44.388Z,25.39
2019-06-26T23:33:12.877Z,25.47
2019-06-26T23:35:41.352Z,25.86
2019-06-26T23:38:09.860Z,26.13
2019-06-26T23:40:38.332Z,26.38
2019-06-26T23:43:06.833Z,26.45
2019-06-26T23:45:35.311Z,26.60
2019-06-26T23:48:03.975Z,26.42
2019-06-26T23:50:32.433Z,26.44
2019-06-26T23:53:00.944Z,26.34
2019-06-26T23:55:29.417Z,26.51
2019-06-26T23:57:59.624Z,26.51
